Time;durP1;ratioP1;P1;durP2;ratioP2;P2;SDS_P1;SDS_P2;PMS_P1;PMS_P2;Temp;Humidity;BMP_temperature;BMP_pressure;BME280_temperature;BME280_humidity;BME280_pressure;Samples;Min_cycle;Max_cycle;Signal;HPM_P1;HPM_P2
2023/11/24 00:01:43;;;;;;;15.00;3.60;;;11.00;99.90;;;;;;10529658;28;20789;-66
2023/11/24 00:06:46;;;;;;;17.23;3.40;;;11.00;99.90;;;;;;10528182;28;20229;-67
2023/11/24 00:11:50;;;;;;;16.37;3.90;;;10.90;99.90;;;;;;10528468;28;20245;-66
2023/11/24 00:16:57;;;;;;;9.47;1.83;;;10.80;99.90;;;;;;10525359;28;20199;-66
2023/11/24 00:22:01;;;;;;;9.27;2.00;;;10.70;99.90;;;;;;10521916;28;20850;-67
2023/11/24 00:27:06;;;;;;;5.70;1.75;;;10.60;99.90;;;;;;10534059;28;20721;-65
2023/11/24 00:32:11;;;;;;;10.20;2.00;;;10.50;99.90;;;;;;10538762;28;20226;-66
2023/11/24 00:37:14;;;;;;;7.20;1.92;;;10.40;99.90;;;;;;10540748;28;20209;-67
2023/11/24 00:42:18;;;;;;;8.93;1.50;;;10.40;99.90;;;;;;10529267;28;20815;-67
2023/11/24 00:47:23;;;;;;;11.67;2.03;;;10.30;99.90;;;;;;10528606;28;20206;-66
2023/11/24 00:52:27;;;;;;;15.87;2.47;;;10.30;99.90;;;;;;10533268;28;20603;-67
2023/11/24 00:57:30;;;;;;;11.83;2.20;;;10.30;99.90;;;;;;10528679;28;20267;-67
2023/11/24 01:02:37;;;;;;;8.37;1.87;;;10.20;99.90;;;;;;10527084;28;20754;-67
2023/11/24 01:07:40;;;;;;;10.70;1.70;;;10.20;99.90;;;;;;10521245;28;20229;-67
2023/11/24 01:12:44;;;;;;;11.83;2.40;;;10.10;99.90;;;;;;10528480;28;20218;-67
2023/11/24 01:17:49;;;;;;;8.83;2.00;;;10.00;99.90;;;;;;10528915;28;20257;-65
2023/11/24 01:22:53;;;;;;;5.70;1.70;;;10.00;99.90;;;;;;10526631;28;20226;-65
2023/11/24 01:27:58;;;;;;;7.57;2.87;;;9.90;99.90;;;;;;10537003;28;20198;-66
2023/11/24 01:33:03;;;;;;;9.13;2.10;;;9.90;99.90;;;;;;10556038;28;20221;-67
2023/11/24 01:38:07;;;;;;;4.70;1.70;;;9.90;99.90;;;;;;10562603;28;20646;-66
2023/11/24 01:43:10;;;;;;;6.00;1.30;;;9.80;99.70;;;;;;10564564;27;20267;-66
2023/11/24 01:48:19;;;;;;;6.70;1.77;;;9.70;99.90;;;;;;10565337;28;20224;-66
2023/11/24 01:53:23;;;;;;;6.43;1.63;;;9.60;98.70;;;;;;10560014;28;20239;-67
2023/11/24 01:58:29;;;;;;;6.93;1.83;;;9.60;98.50;;;;;;10564678;28;20706;-67
2023/11/24 02:03:34;;;;;;;5.73;1.47;;;9.50;99.00;;;;;;10564123;28;20774;-67
2023/11/24 02:08:38;;;;;;;4.63;1.30;;;9.40;98.80;;;;;;10560741;28;20255;-67
2023/11/24 02:13:42;;;;;;;5.57;1.27;;;9.40;98.60;;;;;;10561816;28;20267;-67
2023/11/24 02:18:47;;;;;;;6.40;1.50;;;9.40;98.40;;;;;;10558602;28;20222;-66
2023/11/24 02:23:53;;;;;;;4.17;1.33;;;9.30;98.90;;;;;;10562801;28;20658;-65
2023/11/24 02:28:56;;;;;;;5.43;1.13;;;9.30;98.70;;;;;;10547352;28;20255;-67
2023/11/24 02:34:00;;;;;;;7.73;1.27;;;9.20;98.10;;;;;;10533580;27;20589;-65
2023/11/24 02:39:05;;;;;;;8.80;1.60;;;9.20;98.00;;;;;;10533382;28;20751;-65
2023/11/24 02:44:08;;;;;;;8.67;1.57;;;9.10;97.90;;;;;;10532205;28;20222;-67
2023/11/24 02:49:12;;;;;;;8.07;1.63;;;9.10;97.80;;;;;;10533143;28;20271;-67
2023/11/24 02:54:17;;;;;;;6.50;1.37;;;9.00;97.80;;;;;;10545741;28;20649;-67
2023/11/24 02:59:21;;;;;;;6.93;1.67;;;9.00;97.70;;;;;;10539364;28;20198;-66
2023/11/24 03:04:25;;;;;;;8.00;1.90;;;9.00;98.10;;;;;;10530165;28;20223;-67
2023/11/24 03:09:31;;;;;;;6.47;1.53;;;9.00;97.90;;;;;;10530175;28;20215;-67
2023/11/24 03:14:35;;;;;;;9.80;2.27;;;9.00;98.30;;;;;;10531921;28;20202;-65
2023/11/24 03:19:39;;;;;;;8.27;2.37;;;9.00;98.30;;;;;;10525721;28;20648;-67
2023/11/24 03:24:44;;;;;;;7.90;2.17;;;8.90;98.50;;;;;;10526405;28;20195;-67
2023/11/24 03:29:48;;;;;;;8.83;1.97;;;8.90;98.50;;;;;;10528077;28;20218;-66
2023/11/24 03:34:51;;;;;;;11.27;2.20;;;8.90;98.90;;;;;;10542401;28;20248;-67
2023/11/24 03:39:56;;;;;;;8.83;1.70;;;8.90;99.20;;;;;;10532759;28;21527;-67
2023/11/24 03:45:01;;;;;;;8.33;2.47;;;8.90;98.70;;;;;;10533356;28;20202;-66
2023/11/24 03:50:05;;;;;;;10.27;2.37;;;8.90;98.30;;;;;;10531585;28;20218;-66
2023/11/24 03:55:11;;;;;;;11.70;2.77;;;8.80;98.40;;;;;;10534762;28;20267;-66
2023/11/24 04:00:16;;;;;;;9.30;2.10;;;8.80;98.90;;;;;;10525622;28;20291;-66
2023/11/24 04:05:21;;;;;;;13.67;3.37;;;8.80;98.90;;;;;;10537851;28;20214;-66
2023/11/24 04:10:26;;;;;;;6.97;2.70;;;8.80;98.50;;;;;;10532838;28;20214;-67
2023/11/24 04:15:29;;;;;;;9.73;2.20;;;8.80;99.10;;;;;;10533844;28;20745;-65
2023/11/24 04:20:33;;;;;;;14.70;3.30;;;8.90;98.50;;;;;;10523567;28;20214;-67
2023/11/24 04:25:38;;;;;;;9.83;2.57;;;8.90;98.90;;;;;;10552773;28;20193;-66
2023/11/24 04:30:42;;;;;;;9.57;2.07;;;8.90;99.40;;;;;;10544021;28;20677;-66
2023/11/24 04:35:51;;;;;;;8.03;2.53;;;9.00;99.80;;;;;;10529395;28;20191;-66
2023/11/24 04:40:56;;;;;;;10.47;2.87;;;9.00;99.60;;;;;;10498777;28;20739;-64
2023/11/24 04:46:00;;;;;;;9.13;2.33;;;8.90;99.60;;;;;;10521954;28;20233;-66
2023/11/24 04:51:04;;;;;;;11.53;2.13;;;8.90;99.90;;;;;;10542146;28;20229;-66
2023/11/24 04:56:09;;;;;;;6.87;1.93;;;8.80;99.00;;;;;;10545577;28;20194;-66
2023/11/24 05:01:13;;;;;;;7.60;2.10;;;8.70;99.20;;;;;;10539322;28;20210;-67
2023/11/24 05:06:16;;;;;;;10.00;1.80;;;8.70;99.20;;;;;;10538918;28;20214;-66
2023/11/24 05:11:22;;;;;;;8.97;1.80;;;8.70;99.40;;;;;;10549024;28;20247;-67
2023/11/24 05:16:25;;;;;;;9.83;2.37;;;8.60;98.80;;;;;;10525840;28;20204;-67
2023/11/24 05:21:30;;;;;;;7.27;2.70;;;8.60;99.60;;;;;;10548470;28;20272;-67
2023/11/24 05:26:35;;;;;;;6.90;2.20;;;8.60;99.20;;;;;;10551200;28;20657;-68
2023/11/24 05:31:39;;;;;;;9.03;3.63;;;8.50;99.20;;;;;;10535611;28;20225;-67
2023/11/24 05:36:44;;;;;;;8.70;2.53;;;8.50;99.10;;;;;;10547457;28;20734;-68
2023/11/24 05:41:49;;;;;;;7.43;1.90;;;8.40;98.90;;;;;;10544132;28;20259;-67
2023/11/24 05:46:53;;;;;;;7.73;1.90;;;8.40;98.80;;;;;;10550104;28;20201;-68
2023/11/24 05:51:57;;;;;;;7.60;1.50;;;8.30;98.60;;;;;;10556412;28;20222;-67
2023/11/24 05:57:02;;;;;;;7.57;1.83;;;8.20;99.10;;;;;;10552278;28;20198;-68
2023/11/24 06:02:05;;;;;;;9.83;1.70;;;8.20;98.90;;;;;;10546580;28;20240;-68
2023/11/24 06:07:09;;;;;;;6.37;1.23;;;8.10;99.20;;;;;;10546885;28;20205;-68
2023/11/24 06:12:14;;;;;;;5.47;1.90;;;8.10;99.10;;;;;;10558860;28;20569;-68
2023/11/24 06:17:18;;;;;;;8.37;1.40;;;8.10;99.20;;;;;;10552837;28;20206;-69
2023/11/24 06:22:21;;;;;;;7.97;1.73;;;8.10;99.10;;;;;;10553369;28;20663;-69
2023/11/24 06:27:26;;;;;;;7.23;1.80;;;8.10;99.40;;;;;;10560816;28;20200;-69
2023/11/24 06:32:30;;;;;;;4.43;1.80;;;8.20;99.60;;;;;;10554342;28;20569;-67
2023/11/24 06:37:34;;;;;;;6.00;1.80;;;8.20;99.70;;;;;;10551489;28;20661;-68
2023/11/24 06:42:39;;;;;;;6.63;1.80;;;8.20;99.60;;;;;;10550933;28;20919;-68
2023/11/24 06:47:43;;;;;;;6.87;2.00;;;8.20;99.60;;;;;;10552725;28;20337;-67
2023/11/24 06:52:47;;;;;;;10.10;2.00;;;8.20;99.90;;;;;;10554974;28;20287;-66
2023/11/24 06:57:52;;;;;;;8.63;2.03;;;8.20;99.90;;;;;;10556307;28;20285;-67
2023/11/24 07:02:57;;;;;;;10.63;2.23;;;8.30;99.70;;;;;;10556402;28;20248;-66
2023/11/24 07:08:01;;;;;;;8.97;2.10;;;8.20;99.60;;;;;;10560685;28;20210;-67
2023/11/24 07:13:07;;;;;;;5.60;1.90;;;8.20;99.80;;;;;;10542614;28;20771;-67
2023/11/24 07:18:10;;;;;;;7.83;1.87;;;8.20;99.90;;;;;;10550881;28;20254;-68
2023/11/24 07:23:15;;;;;;;7.10;1.97;;;8.20;99.50;;;;;;10548635;28;20699;-69
2023/11/24 07:28:20;;;;;;;8.57;1.40;;;8.20;99.70;;;;;;10550431;28;20205;-68
2023/11/24 07:33:24;;;;;;;8.47;2.43;;;8.20;99.10;;;;;;10541037;28;20595;-67
2023/11/24 07:38:28;;;;;;;10.93;2.43;;;8.10;99.30;;;;;;10540941;28;20499;-67
2023/11/24 07:43:33;;;;;;;5.70;1.57;;;8.20;99.40;;;;;;10550960;28;20266;-68
2023/11/24 07:48:37;;;;;;;8.50;1.57;;;8.30;98.90;;;;;;10563323;28;20270;-66
2023/11/24 07:53:41;;;;;;;10.63;1.77;;;8.20;98.70;;;;;;10579998;28;20585;-65
2023/11/24 07:58:45;;;;;;;7.87;1.70;;;8.10;98.90;;;;;;10579593;28;20205;-64
2023/11/24 08:03:49;;;;;;;5.67;1.43;;;8.10;98.70;;;;;;10547334;28;20592;-66
2023/11/24 08:08:53;;;;;;;8.43;1.67;;;8.00;98.90;;;;;;10560730;28;20230;-66
2023/11/24 08:13:58;;;;;;;7.90;1.73;;;8.00;98.80;;;;;;10557762;28;20242;-65
2023/11/24 08:19:02;;;;;;;7.67;1.50;;;8.00;98.60;;;;;;10562706;28;20205;-63
2023/11/24 08:24:07;;;;;;;6.83;1.50;;;8.10;98.90;;;;;;10543344;28;20213;-65
2023/11/24 08:29:12;;;;;;;8.77;1.70;;;8.00;98.60;;;;;;10541831;28;20274;-66
2023/11/24 08:34:16;;;;;;;7.77;1.63;;;8.00;98.90;;;;;;10536728;28;20221;-66
2023/11/24 08:39:21;;;;;;;7.07;1.83;;;8.10;99.00;;;;;;10534906;28;20201;-65
2023/11/24 08:44:26;;;;;;;6.10;1.80;;;8.10;99.30;;;;;;10535252;28;20202;-66
2023/11/24 08:49:30;;;;;;;7.53;1.80;;;8.10;98.80;;;;;;10536273;28;20206;-64
2023/11/24 08:54:33;;;;;;;7.87;1.70;;;8.00;99.00;;;;;;10535734;28;20218;-64
2023/11/24 08:59:38;;;;;;;5.70;2.07;;;8.00;99.40;;;;;;10535524;28;20700;-65
2023/11/24 09:04:42;;;;;;;6.30;1.50;;;8.10;99.00;;;;;;10549138;28;20231;-64
2023/11/24 09:09:46;;;;;;;4.10;1.30;;;8.10;98.80;;;;;;10548638;28;20595;-66
2023/11/24 09:14:51;;;;;;;5.40;1.33;;;8.00;98.40;;;;;;10542606;28;20692;-67
2023/11/24 09:19:55;;;;;;;5.30;1.40;;;8.10;98.40;;;;;;10557654;28;20282;-66
2023/11/24 09:25:01;;;;;;;3.57;1.00;;;8.10;97.90;;;;;;10542010;28;20198;-68
2023/11/24 09:30:09;;;;;;;3.07;0.80;;;8.00;97.60;;;;;;10535001;28;20267;-68
2023/11/24 09:35:13;;;;;;;5.00;1.00;;;8.10;98.40;;;;;;10528622;28;20222;-68
2023/11/24 09:40:22;;;;;;;6.50;1.50;;;8.10;98.20;;;;;;10532618;28;20291;-67
2023/11/24 09:45:28;;;;;;;4.13;1.10;;;8.10;98.30;;;;;;10530147;28;20194;-68
2023/11/24 09:50:33;;;;;;;6.00;1.20;;;8.20;98.70;;;;;;10535120;28;20226;-68
2023/11/24 09:55:40;;;;;;;2.43;0.77;;;8.20;98.20;;;;;;10553529;28;20226;-67
2023/11/24 10:00:46;;;;;;;5.03;1.10;;;8.30;97.80;;;;;;10558637;28;20224;-66
2023/11/24 10:05:51;;;;;;;2.23;0.70;;;8.30;97.80;;;;;;10552300;28;20664;-66
2023/11/24 10:11:08;;;;;;;4.40;1.10;;;8.40;97.70;;;;;;10538430;28;20277;-67
2023/11/24 10:16:13;;;;;;;4.00;1.10;;;8.40;97.90;;;;;;10537221;28;20268;-67
2023/11/24 10:21:18;;;;;;;3.60;1.10;;;8.30;98.00;;;;;;10539017;28;20696;-67
2023/11/24 10:26:34;;;;;;;3.37;1.00;;;8.20;97.70;;;;;;10542031;28;20220;-67
2023/11/24 10:31:39;;;;;;;1.90;0.80;;;8.20;97.60;;;;;;10542923;28;20599;-66
2023/11/24 10:36:45;;;;;;;5.37;1.07;;;8.10;97.90;;;;;;10555485;28;20229;-66
2023/11/24 10:41:51;;;;;;;3.70;1.20;;;8.10;97.40;;;;;;10543896;28;20623;-68
2023/11/24 10:47:03;;;;;;;6.57;1.50;;;8.10;97.60;;;;;;10548458;28;20194;-66
2023/11/24 10:52:15;;;;;;;3.40;0.90;;;8.00;97.50;;;;;;10544987;28;20214;-69
2023/11/24 10:57:22;;;;;;;2.13;0.70;;;8.00;96.90;;;;;;10538527;28;20201;-67
2023/11/24 11:02:27;;;;;;;6.17;1.67;;;7.80;97.10;;;;;;10536618;28;20218;-68
2023/11/24 11:07:39;;;;;;;3.77;0.87;;;7.70;98.50;;;;;;10537729;28;20731;-67
2023/11/24 11:12:51;;;;;;;3.57;0.90;;;7.70;98.00;;;;;;10540394;28;20268;-67
2023/11/24 11:18:10;;;;;;;1.43;0.67;;;7.70;97.80;;;;;;10545482;28;20194;-68
2023/11/24 11:23:15;;;;;;;0.80;0.40;;;7.60;97.50;;;;;;10545439;28;20608;-68
2023/11/24 11:28:36;;;;;;;1.27;0.70;;;7.60;98.00;;;;;;10539752;28;20206;-67
2023/11/24 11:33:45;;;;;;;1.33;0.50;;;7.70;97.60;;;;;;10547026;28;20228;-69
2023/11/24 11:38:53;;;;;;;2.87;1.10;;;7.70;98.70;;;;;;10541147;28;20206;-68
2023/11/24 11:43:57;;;;;;;3.33;0.80;;;7.80;98.20;;;;;;10545121;28;20318;-67
2023/11/24 11:49:08;;;;;;;4.13;1.00;;;7.80;97.30;;;;;;10541053;28;20201;-66
2023/11/24 11:54:13;;;;;;;3.30;1.03;;;7.80;97.50;;;;;;10551104;28;20738;-67
2023/11/24 11:59:17;;;;;;;4.20;1.13;;;8.00;98.60;;;;;;10536512;28;20658;-69
2023/11/24 12:04:22;;;;;;;7.43;2.00;;;8.10;98.30;;;;;;10551320;28;20206;-67
2023/11/24 12:09:26;;;;;;;7.23;1.23;;;8.10;98.40;;;;;;10546317;28;20205;-64
2023/11/24 12:14:30;;;;;;;7.63;1.10;;;8.10;96.90;;;;;;10538682;28;20602;-64
2023/11/24 12:19:36;;;;;;;7.07;1.43;;;8.10;96.60;;;;;;10554118;28;20228;-64
2023/11/24 12:24:43;;;;;;;5.70;1.67;;;8.20;97.50;;;;;;10537021;28;20750;-62
2023/11/24 12:29:51;;;;;;;4.63;1.10;;;8.30;95.70;;;;;;10544032;28;20272;-62
2023/11/24 12:34:59;;;;;;;5.07;1.50;;;8.20;94.80;;;;;;10546490;28;20217;-63
2023/11/24 12:40:03;;;;;;;5.47;1.60;;;8.30;95.50;;;;;;10542322;28;20762;-63
2023/11/24 12:45:09;;;;;;;5.13;1.40;;;8.40;94.90;;;;;;10551568;28;20198;-62
2023/11/24 12:50:17;;;;;;;6.73;2.17;;;8.30;94.80;;;;;;10515456;28;20573;-62
2023/11/24 12:55:22;;;;;;;3.63;1.20;;;8.30;95.00;;;;;;10545027;28;20685;-62
2023/11/24 13:00:27;;;;;;;7.67;1.43;;;8.30;94.90;;;;;;10538584;28;20268;-61
2023/11/24 13:05:33;;;;;;;8.70;1.77;;;8.40;94.20;;;;;;10550180;28;20251;-62
2023/11/24 13:10:37;;;;;;;6.77;1.67;;;8.40;94.60;;;;;;10553259;28;20259;-62
2023/11/24 13:15:41;;;;;;;7.87;1.60;;;8.30;95.60;;;;;;10547888;28;20222;-62
2023/11/24 13:20:47;;;;;;;5.30;1.73;;;8.20;94.10;;;;;;10542311;28;20649;-61
2023/11/24 13:25:51;;;;;;;7.50;2.10;;;8.00;94.10;;;;;;10559886;28;20602;-62
2023/11/24 13:30:54;;;;;;;7.57;3.20;;;8.10;94.70;;;;;;10546988;28;20217;-62
2023/11/24 13:36:00;;;;;;;6.23;1.20;;;8.00;95.00;;;;;;10550080;28;20229;-64
2023/11/24 13:41:04;;;;;;;5.13;1.63;;;7.90;94.30;;;;;;10551750;28;20214;-61
2023/11/24 13:46:08;;;;;;;2.50;1.03;;;7.60;94.60;;;;;;10555277;28;20197;-63
2023/11/24 13:51:13;;;;;;;9.93;1.87;;;7.50;94.60;;;;;;10556896;28;20230;-62
2023/11/24 13:56:18;;;;;;;7.30;1.50;;;7.40;95.00;;;;;;10548355;28;20723;-62
2023/11/24 14:01:22;;;;;;;6.17;1.80;;;7.30;94.80;;;;;;10557516;28;20228;-62
2023/11/24 14:06:27;;;;;;;8.27;1.80;;;7.10;95.30;;;;;;10557916;28;20201;-63
2023/11/24 14:11:31;;;;;;;6.67;1.67;;;7.10;96.00;;;;;;10553199;28;20233;-64
2023/11/24 14:16:34;;;;;;;6.57;1.73;;;7.10;95.50;;;;;;10552908;28;20276;-64
2023/11/24 14:21:41;;;;;;;5.93;1.90;;;7.10;95.50;;;;;;10541673;28;20225;-64
2023/11/24 14:26:45;;;;;;;5.63;1.70;;;7.00;95.30;;;;;;10546384;28;20194;-64
2023/11/24 14:31:48;;;;;;;7.87;1.60;;;6.90;95.50;;;;;;10548701;28;20268;-63
2023/11/24 14:36:54;;;;;;;8.37;2.10;;;6.80;95.60;;;;;;10557165;28;20261;-59
2023/11/24 14:41:57;;;;;;;6.77;1.50;;;6.70;95.60;;;;;;10546623;28;20232;-63
2023/11/24 14:47:01;;;;;;;6.07;1.57;;;6.70;95.60;;;;;;10520937;28;20201;-63
2023/11/24 14:52:07;;;;;;;6.87;1.70;;;6.80;95.30;;;;;;10541897;28;20279;-64
2023/11/24 14:57:12;;;;;;;6.87;2.30;;;6.80;95.60;;;;;;10535418;28;20242;-64
2023/11/24 15:02:16;;;;;;;7.43;1.80;;;6.90;96.30;;;;;;10541964;28;20227;-63
2023/11/24 15:07:23;;;;;;;6.73;2.03;;;6.90;95.90;;;;;;10548244;28;20255;-63
2023/11/24 15:12:27;;;;;;;5.40;1.13;;;6.80;95.60;;;;;;10531546;28;20407;-65
2023/11/24 15:17:30;;;;;;;7.87;1.87;;;6.80;95.90;;;;;;10542305;28;20270;-65
2023/11/24 15:22:37;;;;;;;11.30;2.97;;;6.80;96.30;;;;;;10555655;28;20716;-65
2023/11/24 15:27:42;;;;;;;7.13;1.63;;;6.70;96.00;;;;;;10547179;28;20193;-65
2023/11/24 15:32:47;;;;;;;6.30;1.50;;;6.80;96.00;;;;;;10529780;28;20584;-65
2023/11/24 15:37:52;;;;;;;10.50;2.10;;;6.70;96.10;;;;;;10536239;28;20249;-65
2023/11/24 15:42:57;;;;;;;5.07;1.80;;;6.80;96.40;;;;;;10525380;28;20275;-65
2023/11/24 15:48:03;;;;;;;7.77;1.83;;;6.70;95.60;;;;;;10542739;28;20242;-65
2023/11/24 15:53:13;;;;;;;8.83;2.03;;;6.60;95.20;;;;;;10540003;28;20676;-65
2023/11/24 15:58:17;;;;;;;7.87;1.57;;;6.60;94.80;;;;;;10546608;28;20256;-65
2023/11/24 16:03:23;;;;;;;3.63;1.50;;;6.60;94.70;;;;;;10528936;28;20252;-65
2023/11/24 16:08:32;;;;;;;3.07;0.90;;;6.60;94.60;;;;;;10530327;28;20786;-65
2023/11/24 16:13:40;;;;;;;4.37;1.67;;;6.60;93.40;;;;;;10531564;28;20247;-63
2023/11/24 16:18:44;;;;;;;4.00;0.80;;;6.50;93.20;;;;;;10475068;28;20274;-61
2023/11/24 16:23:51;;;;;;;3.50;1.10;;;6.50;93.30;;;;;;10521228;28;20253;-62
2023/11/24 16:28:55;;;;;;;4.43;0.97;;;6.50;93.50;;;;;;10531645;28;20566;-64
2023/11/24 16:33:58;;;;;;;5.07;1.20;;;6.50;93.80;;;;;;10530768;28;20685;-63
2023/11/24 16:39:04;;;;;;;4.20;1.00;;;6.50;93.60;;;;;;10532566;28;20214;-62
2023/11/24 16:44:08;;;;;;;3.20;0.90;;;6.50;92.80;;;;;;10533201;28;20225;-62
2023/11/24 16:49:12;;;;;;;3.97;0.90;;;6.30;93.60;;;;;;10546272;28;20192;-63
2023/11/24 16:54:18;;;;;;;2.80;1.00;;;6.20;93.70;;;;;;10536481;28;20283;-66
2023/11/24 16:59:21;;;;;;;4.30;1.40;;;6.20;94.20;;;;;;10548225;28;20561;-64
2023/11/24 17:04:25;;;;;;;2.70;1.30;;;6.20;94.60;;;;;;10521728;28;20228;-65
2023/11/24 17:09:30;;;;;;;4.37;1.13;;;6.20;94.20;;;;;;10531332;28;20287;-66
2023/11/24 17:14:35;;;;;;;4.70;1.10;;;6.20;94.20;;;;;;10530097;28;20199;-66
2023/11/24 17:19:39;;;;;;;3.63;1.20;;;6.10;94.60;;;;;;10525009;28;20228;-65
2023/11/24 17:24:44;;;;;;;6.60;1.40;;;6.00;94.50;;;;;;10528742;28;20252;-66
2023/11/24 17:29:47;;;;;;;6.03;1.90;;;6.00;94.20;;;;;;10528539;28;20221;-65
2023/11/24 17:34:52;;;;;;;4.47;1.77;;;5.90;94.20;;;;;;10526918;28;20214;-65
2023/11/24 17:39:57;;;;;;;7.17;1.83;;;5.90;94.30;;;;;;10527377;28;20701;-64
2023/11/24 17:45:00;;;;;;;3.88;1.60;;;5.80;94.70;;;;;;10523777;28;20441;-65
2023/11/24 17:50:05;;;;;;;6.87;1.77;;;5.80;94.50;;;;;;10527415;28;20240;-65
2023/11/24 17:55:10;;;;;;;5.33;1.47;;;5.70;94.30;;;;;;10527929;28;20265;-64
2023/11/24 18:00:20;;;;;;;4.47;2.00;;;5.70;94.70;;;;;;10532166;28;20707;-65
2023/11/24 18:05:25;;;;;;;6.97;1.93;;;5.60;94.60;;;;;;10527622;28;20215;-62
2023/11/24 18:10:30;;;;;;;3.73;1.97;;;5.60;94.80;;;;;;10525202;28;20267;-65
2023/11/24 18:15:34;;;;;;;7.83;1.97;;;5.60;95.10;;;;;;10532404;28;20219;-64
2023/11/24 18:20:38;;;;;;;5.93;3.10;;;5.60;95.30;;;;;;10537163;28;20225;-64
2023/11/24 18:25:43;;;;;;;7.53;1.97;;;5.70;95.40;;;;;;10535869;28;21730;-65
2023/11/24 18:30:47;;;;;;;5.70;2.43;;;5.70;95.40;;;;;;10537635;28;20215;-63
2023/11/24 18:35:51;;;;;;;5.47;1.90;;;5.80;95.90;;;;;;10542322;28;20679;-63
2023/11/24 18:40:57;;;;;;;4.50;2.03;;;5.80;95.80;;;;;;10543733;28;20300;-63
2023/11/24 18:46:02;;;;;;;6.23;1.90;;;5.90;95.90;;;;;;10542133;28;20193;-64
2023/11/24 18:51:11;;;;;;;7.23;1.73;;;5.90;95.90;;;;;;10540900;28;20266;-65
2023/11/24 18:56:20;;;;;;;8.27;2.20;;;5.90;96.20;;;;;;10539215;28;20273;-62
2023/11/24 19:01:24;;;;;;;8.23;1.80;;;6.00;96.20;;;;;;10548553;28;20799;-61
2023/11/24 19:06:28;;;;;;;8.33;2.20;;;6.00;96.20;;;;;;10540711;28;20200;-62
2023/11/24 19:11:34;;;;;;;10.47;2.13;;;6.00;96.30;;;;;;10537357;28;20640;-61
2023/11/24 19:16:45;;;;;;;4.70;1.47;;;6.00;96.50;;;;;;10539067;28;20216;-64
2023/11/24 19:21:50;;;;;;;5.60;1.80;;;5.90;96.80;;;;;;10538335;28;20228;-62
2023/11/24 19:26:55;;;;;;;6.67;1.83;;;5.90;97.10;;;;;;10541228;28;20243;-61
2023/11/24 19:31:59;;;;;;;5.43;1.13;;;5.80;96.80;;;;;;10538556;28;20715;-62
2023/11/24 19:37:04;;;;;;;8.20;1.83;;;5.80;97.10;;;;;;10538309;28;20216;-63
2023/11/24 19:42:09;;;;;;;6.23;1.57;;;5.80;96.60;;;;;;10538420;28;20236;-63
2023/11/24 19:47:13;;;;;;;3.90;1.33;;;5.70;97.60;;;;;;10537947;28;20219;-62
2023/11/24 19:52:17;;;;;;;3.30;1.23;;;5.80;96.70;;;;;;10537581;28;20254;-63
2023/11/24 19:57:22;;;;;;;3.07;1.00;;;5.80;96.60;;;;;;10539951;28;20534;-64
2023/11/24 20:02:25;;;;;;;6.23;2.00;;;5.70;96.50;;;;;;10528119;28;20600;-58
2023/11/24 20:07:29;;;;;;;7.97;2.30;;;5.70;96.70;;;;;;10506370;28;20200;-60
2023/11/24 20:12:34;;;;;;;6.00;1.50;;;5.80;97.40;;;;;;10536393;28;20212;-60
2023/11/24 20:17:38;;;;;;;5.50;1.23;;;5.80;96.40;;;;;;10536226;28;20243;-62
2023/11/24 20:22:42;;;;;;;3.83;1.07;;;5.70;96.00;;;;;;10536308;28;20621;-61
2023/11/24 20:27:47;;;;;;;6.97;2.83;;;5.70;95.90;;;;;;10536953;28;20259;-59
2023/11/24 20:32:52;;;;;;;5.80;1.77;;;5.80;97.40;;;;;;10534760;28;20228;-61
2023/11/24 20:37:56;;;;;;;7.73;1.73;;;5.80;96.80;;;;;;10555070;28;20215;-62
2023/11/24 20:43:03;;;;;;;6.80;1.63;;;5.80;96.50;;;;;;10531475;28;20223;-62
2023/11/24 20:48:09;;;;;;;6.77;1.50;;;5.90;96.60;;;;;;10520619;28;20664;-63
2023/11/24 20:53:13;;;;;;;10.07;1.63;;;5.90;96.40;;;;;;10535343;28;20704;-60
2023/11/24 20:58:18;;;;;;;5.60;1.73;;;6.00;96.30;;;;;;10534850;28;20225;-61
2023/11/24 21:03:22;;;;;;;5.20;1.67;;;6.00;97.10;;;;;;10535662;28;20218;-61
2023/11/24 21:08:26;;;;;;;6.00;1.30;;;6.00;96.00;;;;;;10534963;28;20208;-60
2023/11/24 21:13:31;;;;;;;4.53;1.20;;;6.00;95.60;;;;;;10535503;28;20229;-61
2023/11/24 21:18:35;;;;;;;8.20;3.10;;;6.00;95.60;;;;;;10572224;28;20752;-62
2023/11/24 21:23:39;;;;;;;10.07;1.90;;;6.00;95.50;;;;;;10576871;28;20219;-61
2023/11/24 21:28:45;;;;;;;8.33;1.73;;;5.90;95.50;;;;;;10577291;28;20268;-62
2023/11/24 21:34:02;;;;;;;6.80;1.53;;;6.00;95.50;;;;;;10547572;28;20710;-64
2023/11/24 21:39:10;;;;;;;10.13;1.50;;;6.00;95.70;;;;;;10541482;28;20224;-60
2023/11/24 21:44:16;;;;;;;6.40;1.50;;;6.00;95.30;;;;;;10540422;28;20269;-60
2023/11/24 21:49:19;;;;;;;5.87;1.23;;;6.00;95.20;;;;;;10547280;28;20203;-61
2023/11/24 21:54:23;;;;;;;4.43;1.00;;;6.00;95.90;;;;;;10560332;28;20717;-60
2023/11/24 21:59:28;;;;;;;4.50;1.30;;;6.00;96.60;;;;;;10508644;28;20225;-62
2023/11/24 22:04:32;;;;;;;4.37;1.27;;;6.10;96.60;;;;;;10550046;28;20655;-62
2023/11/24 22:09:35;;;;;;;5.60;1.10;;;6.10;95.30;;;;;;10550530;28;20247;-61
2023/11/24 22:14:40;;;;;;;5.27;1.67;;;6.00;96.00;;;;;;10551735;28;20263;-61
2023/11/24 22:19:44;;;;;;;5.03;1.17;;;6.00;96.20;;;;;;10548438;28;20225;-60
2023/11/24 22:24:48;;;;;;;3.83;1.00;;;6.00;95.80;;;;;;10556934;28;20253;-62
2023/11/24 22:29:53;;;;;;;2.13;0.73;;;6.00;95.20;;;;;;10550117;28;20219;-62
2023/11/24 22:35:08;;;;;;;4.20;1.17;;;5.90;95.20;;;;;;10551388;28;20204;-61
2023/11/24 22:40:12;;;;;;;2.13;1.20;;;6.00;95.90;;;;;;10551027;28;20225;-61
2023/11/24 22:45:17;;;;;;;6.23;1.20;;;6.00;95.70;;;;;;10545687;28;20254;-62
2023/11/24 22:50:21;;;;;;;7.20;1.30;;;5.90;95.00;;;;;;10554198;28;20730;-59
2023/11/24 22:55:25;;;;;;;4.30;0.90;;;5.90;95.30;;;;;;10564022;28;20251;-61
2023/11/24 23:00:35;;;;;;;2.73;0.90;;;5.90;94.90;;;;;;10558963;28;20219;-61
2023/11/24 23:05:39;;;;;;;3.77;1.10;;;5.90;94.90;;;;;;10546619;28;20250;-60
2023/11/24 23:10:43;;;;;;;3.70;1.27;;;5.90;95.00;;;;;;10559019;28;20216;-62
2023/11/24 23:15:50;;;;;;;4.63;1.30;;;6.00;94.80;;;;;;10534743;28;20208;-61
2023/11/24 23:20:54;;;;;;;4.30;1.50;;;5.90;94.70;;;;;;10538671;28;20252;-61
2023/11/24 23:25:58;;;;;;;4.10;1.00;;;5.80;94.60;;;;;;10542185;28;20305;-61
2023/11/24 23:31:05;;;;;;;4.03;1.30;;;5.80;95.30;;;;;;10547329;28;20546;-61
2023/11/24 23:36:12;;;;;;;5.80;1.67;;;5.80;95.20;;;;;;10553884;28;20251;-61
2023/11/24 23:41:16;;;;;;;4.20;1.40;;;5.70;94.90;;;;;;10516147;28;20299;-65
2023/11/24 23:46:21;;;;;;;4.60;1.00;;;5.60;95.30;;;;;;10552606;28;20270;-66
2023/11/24 23:51:25;;;;;;;4.57;1.27;;;5.60;95.00;;;;;;10528144;28;20229;-62
2023/11/24 23:56:29;;;;;;;6.23;1.10;;;5.50;95.00;;;;;;10542569;28;20612;-62
